Time;durP1;ratioP1;P1;durP2;ratioP2;P2;SDS_P1;SDS_P2;PMS_P1;PMS_P2;Temp;Humidity;BMP_temperature;BMP_pressure;BME280_temperature;BME280_humidity;BME280_pressure;Samples;Min_cycle;Max_cycle;Signal;HPM_P1;HPM_P2
2021/12/20 00:02:04;;;;;;;28.33;4.35;;;5.70;99.90;;;;;;4933672;28;20034;-86
2021/12/20 00:04:30;;;;;;;35.60;4.43;;;5.60;99.90;;;;;;4929964;28;20047;-86
2021/12/20 00:06:56;;;;;;;37.17;4.57;;;5.60;99.90;;;;;;4918468;28;20398;-87
2021/12/20 00:09:22;;;;;;;34.38;4.03;;;5.60;99.90;;;;;;4927895;28;20065;-87
2021/12/20 00:11:47;;;;;;;30.42;4.72;;;5.60;99.90;;;;;;4947408;28;20038;-87
2021/12/20 00:14:13;;;;;;;29.23;4.10;;;5.60;99.90;;;;;;4912492;28;20035;-87
2021/12/20 00:16:39;;;;;;;38.70;5.28;;;5.50;99.90;;;;;;4917800;28;20453;-87
2021/12/20 00:19:09;;;;;;;36.17;5.18;;;5.50;99.90;;;;;;4906842;29;20043;-87
2021/12/20 00:21:35;;;;;;;38.78;5.30;;;5.50;99.90;;;;;;4916987;28;20074;-87
2021/12/20 00:24:01;;;;;;;39.97;5.35;;;5.50;99.90;;;;;;4933540;28;20062;-87
2021/12/20 00:26:27;;;;;;;39.75;4.70;;;5.40;99.90;;;;;;4919045;28;20367;-87
2021/12/20 00:28:52;;;;;;;35.08;5.20;;;5.40;99.90;;;;;;4928395;28;20069;-86
2021/12/20 00:31:18;;;;;;;34.45;3.95;;;5.40;99.90;;;;;;4931852;28;20097;-87
2021/12/20 00:33:44;;;;;;;34.47;4.57;;;5.40;99.90;;;;;;4928108;28;20062;-87
2021/12/20 00:36:10;;;;;;;48.50;4.55;;;5.30;99.90;;;;;;4925792;28;20038;-87
2021/12/20 00:41:22;;;;;;;33.53;4.20;;;5.30;99.90;;;;;;4950222;28;20493;-87
2021/12/20 00:43:48;;;;;;;45.58;4.72;;;5.30;99.90;;;;;;4939691;28;20045;-87
2021/12/20 00:46:14;;;;;;;36.88;4.50;;;5.20;99.90;;;;;;4933830;28;20478;-87
2021/12/20 00:48:40;;;;;;;37.50;4.38;;;5.20;99.90;;;;;;4943442;28;20034;-87
2021/12/20 00:51:06;;;;;;;56.03;4.45;;;5.20;99.90;;;;;;4918951;28;20619;-85
2021/12/20 00:53:32;;;;;;;41.33;4.72;;;5.10;99.90;;;;;;4924518;28;20038;-85
2021/12/20 00:55:58;;;;;;;27.92;4.13;;;5.10;99.90;;;;;;4931708;28;20038;-85
2021/12/20 00:58:23;;;;;;;49.08;6.22;;;5.10;99.90;;;;;;4908663;28;20046;-85
2021/12/20 01:00:51;;;;;;;43.60;4.57;;;5.00;99.90;;;;;;4953997;28;20279;-85
2021/12/20 01:03:19;;;;;;;44.95;4.53;;;5.00;99.90;;;;;;4910874;28;20058;-86
2021/12/20 01:05:46;;;;;;;38.97;4.15;;;5.00;99.90;;;;;;4925273;28;20232;-85
2021/12/20 01:08:17;;;;;;;31.88;3.58;;;4.90;99.90;;;;;;4929664;28;20053;-85
2021/12/20 01:10:46;;;;;;;38.25;3.63;;;4.90;99.90;;;;;;4947443;28;20275;-85
2021/12/20 01:13:13;;;;;;;37.22;4.78;;;4.80;99.90;;;;;;4945064;28;20051;-86
2021/12/20 01:15:50;;;;;;;41.17;4.53;;;4.80;99.90;;;;;;4944667;28;20070;-86
2021/12/20 01:18:16;;;;;;;39.80;4.50;;;4.70;99.90;;;;;;4958325;28;20122;-85
2021/12/20 01:20:43;;;;;;;46.88;5.20;;;4.60;99.90;;;;;;4941084;28;20050;-85
2021/12/20 01:23:10;;;;;;;23.70;3.65;;;4.60;99.90;;;;;;4928431;28;20224;-85
2021/12/20 01:25:36;;;;;;;54.33;4.63;;;4.60;99.90;;;;;;4909646;29;20043;-85
2021/12/20 01:28:04;;;;;;;39.03;4.35;;;4.50;99.90;;;;;;4929019;28;20343;-85
2021/12/20 01:30:29;;;;;;;37.53;3.97;;;4.40;99.90;;;;;;4925459;28;20193;-85
2021/12/20 01:32:56;;;;;;;36.40;4.25;;;4.40;99.90;;;;;;4930278;28;20121;-85
2021/12/20 01:35:23;;;;;;;26.92;4.30;;;4.30;99.90;;;;;;4927484;28;20047;-85
2021/12/20 01:37:50;;;;;;;31.73;3.97;;;4.30;99.90;;;;;;4928002;28;20043;-85
2021/12/20 01:40:17;;;;;;;46.67;4.53;;;4.20;99.90;;;;;;4939083;28;20042;-86
2021/12/20 01:42:44;;;;;;;30.55;3.45;;;4.20;99.90;;;;;;4919840;28;20043;-85
2021/12/20 01:45:22;;;;;;;36.03;4.72;;;4.10;99.90;;;;;;4929429;28;20050;-85
2021/12/20 01:47:52;;;;;;;32.15;4.55;;;4.10;99.90;;;;;;4925409;29;20040;-85
2021/12/20 01:50:40;;;;;;;35.03;4.63;;;4.00;99.90;;;;;;4915194;28;20039;-85
2021/12/20 01:53:07;;;;;;;40.22;3.67;;;3.90;99.90;;;;;;4937878;28;20398;-85
2021/12/20 01:55:33;;;;;;;36.85;3.47;;;3.90;99.90;;;;;;4921860;28;20354;-85
2021/12/20 01:57:58;;;;;;;31.80;4.35;;;3.90;99.90;;;;;;4929505;28;20074;-85
2021/12/20 02:00:27;;;;;;;34.53;3.97;;;3.80;99.90;;;;;;4943685;28;20133;-85
2021/12/20 02:02:58;;;;;;;25.20;3.88;;;3.80;99.90;;;;;;4932945;28;20042;-85
2021/12/20 02:08:20;;;;;;;25.83;4.13;;;3.70;99.90;;;;;;4938650;28;20054;-85
2021/12/20 02:10:47;;;;;;;24.60;3.42;;;3.70;99.90;;;;;;4921805;28;20119;-86
2021/12/20 02:13:14;;;;;;;42.10;4.00;;;3.70;99.90;;;;;;4948437;28;20093;-85
2021/12/20 02:15:40;;;;;;;36.25;4.18;;;3.60;99.90;;;;;;4927157;28;20043;-85
2021/12/20 02:18:07;;;;;;;42.38;4.43;;;3.60;99.90;;;;;;4929288;28;20079;-85
2021/12/20 02:20:34;;;;;;;36.92;3.65;;;3.60;99.90;;;;;;4944156;28;20466;-85
2021/12/20 02:23:01;;;;;;;35.90;4.15;;;3.60;99.90;;;;;;4908496;28;20086;-85
2021/12/20 02:25:28;;;;;;;33.03;3.42;;;3.50;99.90;;;;;;4944811;28;20038;-85
2021/12/20 02:27:55;;;;;;;35.13;4.57;;;3.50;99.90;;;;;;4947054;28;20135;-85
2021/12/20 02:38:28;;;;;;;29.05;3.92;;;3.50;99.90;;;;;;4944396;28;20038;-85
2021/12/20 02:41:13;;;;;;;42.08;4.35;;;3.50;99.90;;;;;;4945173;28;20057;-86
2021/12/20 02:43:43;;;;;;;30.95;3.78;;;3.50;99.90;;;;;;4948858;28;20043;-86
2021/12/20 02:46:30;;;;;;;29.15;4.13;;;3.60;99.90;;;;;;4941624;28;20058;-85
2021/12/20 02:48:56;;;;;;;41.40;4.40;;;3.60;99.90;;;;;;4942465;28;20042;-85
2021/12/20 02:51:26;;;;;;;33.78;4.35;;;3.60;99.90;;;;;;4952453;28;20055;-85
2021/12/20 02:53:55;;;;;;;30.08;3.90;;;3.50;99.90;;;;;;4914456;28;20510;-84
2021/12/20 02:56:22;;;;;;;31.73;3.72;;;3.60;99.90;;;;;;4943395;28;20553;-85
2021/12/20 02:58:48;;;;;;;29.45;3.80;;;3.50;99.90;;;;;;4927614;28;20039;-85
2021/12/20 03:01:14;;;;;;;33.08;3.58;;;3.50;99.90;;;;;;4915852;28;20486;-85
2021/12/20 03:07:09;;;;;;;36.55;3.42;;;3.60;99.90;;;;;;4954877;28;20238;-85
2021/12/20 03:10:48;;;;;;;35.45;3.65;;;3.60;99.90;;;;;;4903229;29;20175;-85
2021/12/20 03:14:41;;;;;;;36.00;3.70;;;3.50;99.90;;;;;;4901943;29;20039;-85
2021/12/20 03:18:03;;;;;;;25.40;3.60;;;3.50;99.90;;;;;;4897073;29;20066;-85
2021/12/20 03:50:18;;;;;;;33.72;2.92;;;3.00;99.90;;;;;;4880111;29;20246;-85
2021/12/20 03:53:26;;;;;;;32.80;3.78;;;2.90;99.90;;;;;;4864146;29;20169;-85
2021/12/20 04:00:17;;;;;;;32.45;2.83;;;2.90;99.90;;;;;;4849616;29;20124;-85
2021/12/20 04:03:38;;;;;;;33.05;3.03;;;2.80;99.90;;;;;;4817364;29;20243;-85
2021/12/20 04:07:17;;;;;;;32.80;2.60;;;2.70;99.90;;;;;;4879607;29;20124;-85
2021/12/20 04:10:40;;;;;;;33.67;2.88;;;2.70;99.90;;;;;;4880197;29;20068;-85
2021/12/20 04:13:09;;;;;;;20.90;2.65;;;2.60;99.90;;;;;;4846440;29;20040;-85
2021/12/20 04:15:35;;;;;;;20.80;2.22;;;2.60;99.90;;;;;;4836221;29;20061;-85
2021/12/20 04:18:01;;;;;;;16.75;2.53;;;2.60;99.90;;;;;;4847093;29;20041;-85
2021/12/20 04:20:26;;;;;;;26.80;3.08;;;2.50;99.90;;;;;;4864578;29;20047;-84
2021/12/20 04:22:52;;;;;;;19.70;2.05;;;2.50;99.90;;;;;;4861744;29;21935;-85
2021/12/20 04:25:18;;;;;;;30.75;2.58;;;2.50;99.90;;;;;;4833097;29;20048;-85
2021/12/20 04:27:44;;;;;;;26.67;2.85;;;2.50;99.90;;;;;;4870757;29;20122;-85
2021/12/20 04:30:11;;;;;;;28.55;3.08;;;2.50;99.90;;;;;;4862475;29;20061;-85
2021/12/20 04:32:44;;;;;;;26.15;3.10;;;2.40;99.90;;;;;;4857456;29;20050;-85
2021/12/20 04:35:12;;;;;;;21.85;2.47;;;2.50;99.90;;;;;;4875037;29;20442;-85
2021/12/20 04:37:40;;;;;;;27.90;3.13;;;2.30;99.90;;;;;;4894249;29;20050;-85
2021/12/20 04:40:10;;;;;;;25.35;3.55;;;2.30;99.90;;;;;;4899243;29;20055;-85
2021/12/20 04:42:36;;;;;;;24.48;3.35;;;2.30;99.90;;;;;;4881045;29;20379;-86
2021/12/20 04:45:01;;;;;;;33.72;2.88;;;2.30;99.90;;;;;;4887323;29;20122;-85
2021/12/20 04:47:27;;;;;;;28.60;3.78;;;2.20;99.90;;;;;;4905328;29;20047;-85
2021/12/20 04:49:53;;;;;;;36.25;4.18;;;2.20;99.90;;;;;;4889747;29;20027;-85
2021/12/20 04:52:19;;;;;;;24.02;2.20;;;2.10;99.90;;;;;;4890351;29;20483;-85
2021/12/20 04:54:44;;;;;;;21.58;3.40;;;2.10;99.90;;;;;;4894000;29;20047;-85
2021/12/20 04:57:10;;;;;;;29.50;2.80;;;2.10;99.90;;;;;;4885663;29;20094;-86
2021/12/20 04:59:36;;;;;;;28.90;2.88;;;2.00;99.90;;;;;;4905015;29;20039;-85
2021/12/20 05:02:02;;;;;;;36.38;3.00;;;2.00;99.90;;;;;;4877509;28;20051;-86
2021/12/20 05:04:28;;;;;;;26.27;3.03;;;1.90;99.90;;;;;;4887143;29;20047;-86
2021/12/20 05:06:54;;;;;;;32.55;3.58;;;1.80;99.90;;;;;;4911166;29;20094;-85
2021/12/20 05:09:20;;;;;;;39.03;3.47;;;1.80;99.90;;;;;;4895838;29;20082;-86
2021/12/20 05:11:50;;;;;;;26.20;2.80;;;1.80;99.90;;;;;;4887307;29;20036;-86
2021/12/20 05:14:19;;;;;;;30.02;2.63;;;1.80;99.90;;;;;;4896056;29;20043;-85
2021/12/20 05:16:47;;;;;;;32.28;3.15;;;1.70;99.90;;;;;;4889020;29;20110;-86
2021/12/20 05:19:13;;;;;;;33.75;3.10;;;1.70;99.90;;;;;;4906554;29;20478;-85
2021/12/20 05:21:39;;;;;;;30.38;3.75;;;1.70;99.90;;;;;;4908302;29;20130;-86
2021/12/20 05:24:05;;;;;;;30.92;3.67;;;1.70;99.90;;;;;;4899409;29;20058;-86
2021/12/20 05:26:30;;;;;;;25.58;3.47;;;1.60;99.90;;;;;;4888857;29;20451;-86
2021/12/20 05:28:56;;;;;;;32.08;3.17;;;1.60;99.90;;;;;;4907551;29;20091;-86
2021/12/20 05:31:22;;;;;;;26.58;3.47;;;1.60;99.90;;;;;;4865914;29;20141;-86
2021/12/20 05:33:48;;;;;;;20.17;2.33;;;1.60;99.90;;;;;;4891034;29;20042;-86
2021/12/20 05:36:14;;;;;;;18.00;2.45;;;1.50;99.90;;;;;;4885338;29;20043;-86
2021/12/20 05:38:39;;;;;;;19.00;2.90;;;1.50;99.90;;;;;;4909133;29;20523;-86
2021/12/20 05:41:05;;;;;;;33.78;3.80;;;1.40;99.90;;;;;;4881282;29;20198;-86
2021/12/20 05:43:31;;;;;;;35.03;3.20;;;1.40;99.90;;;;;;4893601;29;20493;-86
2021/12/20 05:45:57;;;;;;;24.50;3.47;;;1.40;99.90;;;;;;4897108;29;20581;-87
2021/12/20 05:48:22;;;;;;;33.25;4.00;;;1.30;99.90;;;;;;4908504;29;20040;-86
2021/12/20 05:50:48;;;;;;;29.42;3.92;;;1.30;99.90;;;;;;4894765;29;20059;-87
2021/12/20 05:53:14;;;;;;;30.63;3.15;;;1.30;99.90;;;;;;4907782;29;20043;-85
2021/12/20 05:55:40;;;;;;;32.28;3.80;;;1.30;99.90;;;;;;4897331;29;20054;-85
2021/12/20 05:58:06;;;;;;;23.67;2.80;;;1.30;99.90;;;;;;4895450;29;20047;-86
2021/12/20 06:00:31;;;;;;;25.90;3.10;;;1.30;99.90;;;;;;4872408;29;20040;-86
2021/12/20 06:02:57;;;;;;;21.70;2.75;;;1.30;99.90;;;;;;4892637;29;20035;-86
2021/12/20 06:05:23;;;;;;;24.15;3.15;;;1.20;99.90;;;;;;4890152;29;20491;-86
2021/12/20 06:07:49;;;;;;;27.65;3.38;;;1.20;99.90;;;;;;4906123;29;20455;-86
2021/12/20 06:10:19;;;;;;;20.92;2.58;;;1.10;99.90;;;;;;4912568;29;20071;-86
2021/12/20 06:12:45;;;;;;;21.70;3.15;;;1.10;99.90;;;;;;4913510;29;20055;-87
2021/12/20 06:15:12;;;;;;;26.25;3.03;;;1.10;99.90;;;;;;4913823;29;20094;-87
2021/12/20 06:17:38;;;;;;;25.80;3.05;;;1.00;99.90;;;;;;4915947;29;20204;-87
2021/12/20 06:20:07;;;;;;;22.75;3.00;;;1.00;99.90;;;;;;4929992;29;20411;-87
2021/12/20 06:22:32;;;;;;;28.65;4.07;;;1.00;99.90;;;;;;4914874;29;20082;-87
2021/12/20 06:24:58;;;;;;;17.05;2.97;;;1.00;99.90;;;;;;4905090;29;20055;-87
2021/12/20 06:27:24;;;;;;;29.83;3.40;;;1.00;99.90;;;;;;4903471;29;20043;-87
2021/12/20 06:29:50;;;;;;;32.55;3.58;;;0.90;99.90;;;;;;4903742;29;20034;-88
2021/12/20 06:32:16;;;;;;;20.92;3.70;;;0.90;99.90;;;;;;4903152;29;20046;-88
2021/12/20 06:34:42;;;;;;;32.47;3.55;;;0.90;99.90;;;;;;4885488;29;20099;-88
2021/12/20 06:37:08;;;;;;;29.33;3.85;;;0.90;99.90;;;;;;4898156;29;20122;-88
2021/12/20 06:39:37;;;;;;;23.17;3.72;;;0.90;99.90;;;;;;4909040;29;20505;-88
2021/12/20 06:42:07;;;;;;;32.63;5.05;;;0.80;99.90;;;;;;4897386;29;20487;-88
2021/12/20 06:44:33;;;;;;;38.33;3.70;;;0.80;99.90;;;;;;4899007;29;20299;-87
2021/12/20 06:46:59;;;;;;;22.67;3.03;;;0.80;99.90;;;;;;4916586;28;20120;-88
2021/12/20 06:49:26;;;;;;;22.55;3.00;;;0.80;99.90;;;;;;4908824;29;20130;-88
2021/12/20 06:52:00;;;;;;;21.45;2.42;;;0.80;99.90;;;;;;4912058;28;20043;-88
2021/12/20 06:54:26;;;;;;;21.02;2.88;;;0.80;99.90;;;;;;4913220;29;20339;-87
2021/12/20 06:56:53;;;;;;;22.80;2.90;;;0.70;99.90;;;;;;4913662;29;20105;-88
2021/12/20 06:59:35;;;;;;;18.67;2.55;;;0.70;99.90;;;;;;4914069;29;20043;-88
2021/12/20 07:02:04;;;;;;;17.80;2.40;;;0.60;99.90;;;;;;4911398;29;20047;-87
2021/12/20 07:04:30;;;;;;;11.77;1.73;;;0.70;99.90;;;;;;4889646;29;20130;-88
2021/12/20 07:06:59;;;;;;;24.48;2.38;;;0.70;99.90;;;;;;4890391;29;20130;-88
2021/12/20 07:09:26;;;;;;;20.35;2.58;;;0.50;99.90;;;;;;4905052;29;20372;-88
2021/12/20 07:11:53;;;;;;;14.40;2.30;;;0.60;99.90;;;;;;4914884;29;20447;-88
2021/12/20 07:14:20;;;;;;;23.55;3.70;;;0.50;99.90;;;;;;4912306;29;20129;-88
2021/12/20 07:16:45;;;;;;;26.25;2.67;;;0.50;99.90;;;;;;4909860;29;20087;-88
2021/12/20 07:19:11;;;;;;;29.25;3.05;;;0.50;99.90;;;;;;4919147;29;20106;-88
2021/12/20 07:21:37;;;;;;;20.45;2.42;;;0.50;99.90;;;;;;4916918;29;20051;-88
2021/12/20 07:24:03;;;;;;;22.70;2.42;;;0.40;99.90;;;;;;4899554;29;20494;-88
2021/12/20 07:26:30;;;;;;;16.95;2.20;;;0.40;99.90;;;;;;4915447;29;20075;-88
2021/12/20 07:28:56;;;;;;;21.02;2.60;;;0.40;99.90;;;;;;4895901;29;20226;-87
2021/12/20 07:31:22;;;;;;;17.23;2.83;;;0.30;99.90;;;;;;4900779;29;20058;-88
2021/12/20 07:33:48;;;;;;;19.45;3.45;;;0.30;99.90;;;;;;4911652;29;20097;-88
2021/12/20 07:36:18;;;;;;;18.40;2.63;;;0.30;99.90;;;;;;4921752;29;20039;-88
2021/12/20 07:38:47;;;;;;;21.27;3.22;;;0.20;99.90;;;;;;4900825;29;20625;-88
2021/12/20 07:41:16;;;;;;;28.35;3.47;;;0.30;99.90;;;;;;4916195;28;20050;-88
2021/12/20 07:44:05;;;;;;;13.18;2.20;;;0.30;99.90;;;;;;4903630;29;20047;-89
2021/12/20 07:46:34;;;;;;;27.90;2.60;;;0.20;99.90;;;;;;4901318;29;20199;-88
2021/12/20 07:49:00;;;;;;;19.83;2.60;;;0.20;99.90;;;;;;4882636;29;20035;-88
2021/12/20 07:51:26;;;;;;;18.02;2.78;;;0.20;99.90;;;;;;4894618;29;20038;-89
2021/12/20 07:53:53;;;;;;;19.63;2.55;;;0.20;99.90;;;;;;4898456;29;20669;-89
2021/12/20 07:56:19;;;;;;;25.27;3.60;;;0.20;99.90;;;;;;4910546;29;20043;-88
2021/12/20 07:58:45;;;;;;;16.65;2.75;;;0.10;99.90;;;;;;4911376;29;20098;-88
2021/12/20 08:01:17;;;;;;;17.98;3.20;;;0.10;99.90;;;;;;4900624;29;20497;-88
2021/12/20 08:03:46;;;;;;;22.60;3.80;;;0.10;99.90;;;;;;4914092;29;20036;-89
2021/12/20 08:06:12;;;;;;;16.17;3.20;;;0.10;99.90;;;;;;4923241;29;20095;-88
2021/12/20 08:08:42;;;;;;;17.00;3.20;;;0.10;99.90;;;;;;4901980;29;20132;-89
2021/12/20 08:11:08;;;;;;;20.33;3.63;;;0.10;99.90;;;;;;4930393;29;20415;-88
2021/12/20 08:13:34;;;;;;;20.67;4.97;;;0.10;99.90;;;;;;4901814;29;20046;-88
2021/12/20 08:16:00;;;;;;;27.05;6.18;;;0.00;99.90;;;;;;4915514;29;20124;-89
2021/12/20 08:18:29;;;;;;;23.98;5.82;;;0.10;99.90;;;;;;4901458;29;20051;-89
2021/12/20 08:20:56;;;;;;;29.45;6.32;;;0.10;99.90;;;;;;4901100;29;20043;-89
2021/12/20 08:23:22;;;;;;;29.13;6.53;;;0.10;99.90;;;;;;4914577;29;20039;-89
2021/12/20 08:25:51;;;;;;;21.27;6.20;;;0.10;99.90;;;;;;4920089;29;20039;-89
2021/12/20 08:28:21;;;;;;;29.25;6.53;;;0.10;99.90;;;;;;4900231;29;20035;-89
2021/12/20 08:30:51;;;;;;;33.80;7.80;;;0.10;99.90;;;;;;4892455;29;20142;-89
2021/12/20 08:33:19;;;;;;;35.97;5.82;;;0.20;99.90;;;;;;4916848;29;20070;-89
2021/12/20 08:35:51;;;;;;;30.20;5.68;;;0.20;99.90;;;;;;4901949;29;20046;-89
2021/12/20 08:38:21;;;;;;;23.98;4.63;;;0.30;99.90;;;;;;4900979;29;20375;-89
2021/12/20 08:40:48;;;;;;;25.75;4.82;;;0.30;99.90;;;;;;4901122;29;20039;-89
2021/12/20 08:43:16;;;;;;;22.48;4.70;;;0.40;99.90;;;;;;4913742;29;20031;-89
2021/12/20 08:45:42;;;;;;;22.17;5.35;;;0.30;99.90;;;;;;4926190;29;20032;-89
2021/12/20 08:48:09;;;;;;;33.67;5.97;;;0.30;99.90;;;;;;4905740;29;20062;-89
2021/12/20 08:50:42;;;;;;;23.25;5.30;;;0.30;99.90;;;;;;4913757;29;20041;-89
2021/12/20 08:53:10;;;;;;;13.45;4.25;;;0.40;99.90;;;;;;4909961;29;20051;-89
2021/12/20 08:55:38;;;;;;;21.77;4.90;;;0.40;99.90;;;;;;4915586;29;20050;-89
2021/12/20 08:58:09;;;;;;;12.10;4.38;;;0.40;99.90;;;;;;4918510;29;20110;-89
2021/12/20 09:00:39;;;;;;;11.07;4.70;;;0.50;99.90;;;;;;4914384;29;20050;-88
2021/12/20 09:03:06;;;;;;;14.43;5.43;;;0.50;99.90;;;;;;4894620;28;20530;-89
2021/12/20 09:05:34;;;;;;;15.60;4.40;;;0.60;99.90;;;;;;4915466;29;20039;-89
2021/12/20 09:08:06;;;;;;;24.77;3.88;;;0.60;99.90;;;;;;4907754;29;20041;-89
2021/12/20 09:10:33;;;;;;;23.42;4.25;;;0.60;99.90;;;;;;4902242;29;20039;-88
2021/12/20 09:13:00;;;;;;;20.40;4.38;;;0.60;99.90;;;;;;4904215;29;20406;-87
2021/12/20 09:15:26;;;;;;;10.50;2.90;;;0.70;99.90;;;;;;4914414;29;20043;-88
2021/12/20 09:17:53;;;;;;;18.77;3.65;;;0.70;99.90;;;;;;4893550;29;20130;-88
2021/12/20 09:20:25;;;;;;;16.27;3.97;;;0.70;99.90;;;;;;4903444;29;20043;-88
2021/12/20 09:22:53;;;;;;;35.75;5.28;;;0.70;99.90;;;;;;4911664;29;20046;-88
2021/12/20 09:25:25;;;;;;;47.70;4.75;;;0.80;99.90;;;;;;4908854;29;20527;-88
2021/12/20 09:27:56;;;;;;;58.05;5.95;;;0.80;99.90;;;;;;4925393;29;20038;-88
2021/12/20 09:30:25;;;;;;;30.92;4.80;;;0.80;99.90;;;;;;4892384;29;20466;-88
2021/12/20 09:32:51;;;;;;;54.25;6.57;;;0.90;99.90;;;;;;4909660;29;20035;-89
2021/12/20 09:35:21;;;;;;;45.33;7.30;;;1.00;99.90;;;;;;4906812;29;20047;-88
2021/12/20 09:37:51;;;;;;;27.55;4.82;;;1.00;99.90;;;;;;4905108;29;20126;-88
2021/12/20 09:40:37;;;;;;;28.35;4.72;;;1.10;99.90;;;;;;4898238;29;20038;-87
2021/12/20 09:43:24;;;;;;;;;;;;;;;;;;;;;
2021/12/20 09:45:56;;;;;;;29.00;4.38;;;1.10;99.90;;;;;;4908422;29;20051;-89
2021/12/20 09:48:24;;;;;;;27.08;5.05;;;1.20;99.90;;;;;;4904757;29;20035;-87
2021/12/20 09:50:53;;;;;;;32.47;5.35;;;1.30;99.90;;;;;;4899440;29;20074;-88
2021/12/20 09:53:23;;;;;;;28.63;5.97;;;1.30;99.90;;;;;;4908686;29;20107;-87
2021/12/20 09:55:51;;;;;;;34.15;5.45;;;1.40;99.90;;;;;;4917764;29;20083;-87
2021/12/20 09:58:21;;;;;;;27.77;5.30;;;1.50;99.90;;;;;;4893067;29;20051;-88
2021/12/20 10:00:48;;;;;;;27.27;5.28;;;1.60;99.90;;;;;;4918531;29;20130;-87
2021/12/20 10:03:14;;;;;;;19.52;5.15;;;1.60;99.90;;;;;;4904069;29;20157;-87
2021/12/20 10:05:40;;;;;;;23.33;5.55;;;1.70;99.90;;;;;;4890148;29;20194;-86
2021/12/20 10:08:14;;;;;;;31.85;5.68;;;1.70;99.90;;;;;;4908177;29;20035;-87
2021/12/20 10:10:43;;;;;;;28.65;6.15;;;1.90;99.90;;;;;;4895508;29;20122;-87
2021/12/20 10:13:39;;;;;;;19.08;5.95;;;2.00;99.90;;;;;;4910195;29;20047;-87
2021/12/20 10:16:20;;;;;;;28.52;5.72;;;2.10;99.90;;;;;;4891975;29;20150;-86
2021/12/20 10:18:47;;;;;;;32.85;6.50;;;2.10;99.90;;;;;;4903088;29;20071;-86
2021/12/20 10:21:13;;;;;;;33.20;6.45;;;2.30;99.90;;;;;;4906070;28;20534;-87
2021/12/20 10:23:47;;;;;;;33.65;7.53;;;2.30;99.90;;;;;;4880680;28;20078;-86
2021/12/20 10:26:21;;;;;;;29.17;6.63;;;2.40;99.90;;;;;;4913621;29;20039;-86
2021/12/20 10:28:52;;;;;;;32.25;6.95;;;2.70;99.90;;;;;;4912921;29;20058;-87
2021/12/20 10:31:27;;;;;;;36.35;7.72;;;2.90;99.90;;;;;;4921278;29;20090;-86
2021/12/20 10:33:58;;;;;;;37.92;7.35;;;3.10;99.90;;;;;;4896513;29;20218;-86
2021/12/20 10:36:24;;;;;;;31.08;6.07;;;3.30;99.90;;;;;;4923426;29;20442;-87
2021/12/20 10:38:59;;;;;;;31.23;6.28;;;3.30;99.90;;;;;;4905247;29;21197;-87
2021/12/20 10:41:33;;;;;;;37.78;6.00;;;3.40;99.90;;;;;;4901488;29;20450;-87
2021/12/20 10:44:03;;;;;;;29.35;5.85;;;3.50;99.90;;;;;;4909832;29;20031;-88
2021/12/20 10:46:31;;;;;;;35.65;4.97;;;3.60;99.90;;;;;;4927420;29;20047;-86
2021/12/20 10:49:03;;;;;;;31.60;5.35;;;3.70;99.90;;;;;;4908367;29;20039;-86
2021/12/20 10:51:31;;;;;;;25.95;4.78;;;3.80;99.90;;;;;;4920448;29;20123;-87
2021/12/20 10:54:03;;;;;;;31.38;4.85;;;3.90;99.90;;;;;;4920595;29;20039;-86
2021/12/20 10:56:34;;;;;;;21.27;3.97;;;3.90;99.90;;;;;;4914247;29;20062;-87
2021/12/20 10:59:06;;;;;;;25.15;4.40;;;4.00;99.90;;;;;;4907782;29;20538;-89
2021/12/20 11:02:42;;;;;;;20.13;4.50;;;4.10;99.90;;;;;;4910315;29;20094;-88
2021/12/20 11:04:50;;;;;;;19.95;4.28;;;4.20;99.90;;;;;;4937301;28;20047;-89
2021/12/20 11:09:52;;;;;;;17.63;2.88;;;4.40;99.90;;;;;;4922210;29;20039;-88
2021/12/20 11:12:24;;;;;;;14.35;2.67;;;4.40;99.90;;;;;;4917824;29;20102;-88
2021/12/20 11:14:53;;;;;;;16.48;3.63;;;4.50;99.90;;;;;;4914232;29;20067;-87
2021/12/20 11:17:21;;;;;;;16.38;3.75;;;4.60;99.90;;;;;;4907282;29;20280;-87
2021/12/20 11:19:51;;;;;;;20.23;2.70;;;4.60;99.90;;;;;;4894513;29;20070;-87
2021/12/20 11:22:19;;;;;;;11.48;2.08;;;4.70;99.90;;;;;;4898329;29;20087;-89
2021/12/20 11:24:54;;;;;;;17.63;2.83;;;4.70;99.90;;;;;;4915108;29;20070;-88
2021/12/20 11:27:22;;;;;;;13.80;3.08;;;4.90;99.90;;;;;;4915366;29;20043;-88
2021/12/20 11:29:49;;;;;;;15.02;3.38;;;4.90;99.90;;;;;;4919365;29;20067;-88
2021/12/20 11:32:17;;;;;;;13.02;2.38;;;5.00;99.90;;;;;;4904713;29;20039;-87
2021/12/20 11:34:43;;;;;;;16.17;2.35;;;5.00;99.90;;;;;;4916316;29;20050;-86
2021/12/20 11:37:11;;;;;;;10.32;2.25;;;5.10;99.90;;;;;;4912684;29;20047;-86
2021/12/20 11:39:37;;;;;;;9.55;1.60;;;5.20;99.90;;;;;;4896462;29;20041;-86
2021/12/20 11:42:06;;;;;;;8.98;1.42;;;5.20;99.90;;;;;;4909080;29;20047;-86
2021/12/20 11:44:33;;;;;;;9.23;1.33;;;5.30;99.90;;;;;;4899158;29;20043;-86
2021/12/20 11:47:25;;;;;;;10.70;1.10;;;5.40;99.90;;;;;;4918820;29;20047;-86
2021/12/20 11:50:06;;;;;;;8.25;1.10;;;5.60;99.90;;;;;;4912984;29;20032;-85
2021/12/20 11:52:40;;;;;;;3.92;0.98;;;5.80;99.90;;;;;;4927851;29;20420;-85
2021/12/20 11:55:29;;;;;;;3.70;0.90;;;5.90;99.90;;;;;;4906554;29;20431;-86
2021/12/20 11:58:00;;;;;;;8.80;1.30;;;6.10;99.90;;;;;;4935780;29;20110;-87
2021/12/20 12:00:26;;;;;;;7.22;0.93;;;6.10;99.90;;;;;;4930141;29;20110;-86
2021/12/20 12:02:55;;;;;;;6.95;1.23;;;6.20;99.90;;;;;;4913914;29;20043;-87
2021/12/20 12:05:34;;;;;;;7.30;1.33;;;6.20;99.90;;;;;;4927305;29;20043;-86
2021/12/20 12:08:29;;;;;;;5.93;1.10;;;6.30;99.90;;;;;;4919491;29;20380;-86
2021/12/20 12:10:57;;;;;;;12.02;1.40;;;6.40;99.90;;;;;;4912259;29;20040;-87
2021/12/20 12:13:26;;;;;;;3.17;0.70;;;6.40;99.90;;;;;;4927769;29;20452;-89
2021/12/20 12:16:03;;;;;;;12.15;1.50;;;6.50;99.90;;;;;;4911303;29;20105;-86
2021/12/20 12:18:49;;;;;;;11.55;3.60;;;6.60;99.90;;;;;;4895338;29;20482;-86
2021/12/20 12:21:40;;;;;;;8.52;3.20;;;6.70;99.90;;;;;;4914322;29;20126;-89
2021/12/20 12:24:15;;;;;;;11.35;3.30;;;6.90;99.90;;;;;;4914484;29;20183;-88
2021/12/20 12:26:48;;;;;;;11.25;3.10;;;7.40;99.90;;;;;;4907058;29;20047;-86
2021/12/20 12:29:20;;;;;;;12.80;2.92;;;7.70;99.90;;;;;;4911366;29;20027;-87
2021/12/20 12:32:01;;;;;;;7.93;2.73;;;7.80;99.90;;;;;;4907276;29;20054;-86
2021/12/20 12:34:39;;;;;;;12.48;2.92;;;7.80;99.90;;;;;;4906454;29;20039;-86
2021/12/20 12:37:23;;;;;;;10.90;2.60;;;7.70;99.90;;;;;;4908045;29;20050;-87
2021/12/20 12:39:49;;;;;;;10.50;2.25;;;7.70;99.90;;;;;;4929258;29;20043;-86
2021/12/20 12:42:15;;;;;;;10.57;2.92;;;8.20;99.90;;;;;;4893379;29;20051;-86
2021/12/20 12:44:54;;;;;;;14.50;3.85;;;8.50;99.90;;;;;;4895055;29;20039;-86
2021/12/20 12:47:35;;;;;;;7.85;2.08;;;8.40;99.90;;;;;;4908584;29;20067;-86
2021/12/20 12:50:01;;;;;;;9.15;1.42;;;8.70;99.90;;;;;;4923015;29;20047;-86
2021/12/20 17:20:38;;;;;;;15.05;5.88;;;0.40;99.90;;;;;;4969278;28;20433;-84
2021/12/20 17:23:04;;;;;;;23.63;8.48;;;0.40;99.90;;;;;;4930400;28;20066;-85
2021/12/20 17:25:31;;;;;;;20.08;9.65;;;0.40;99.90;;;;;;4934914;28;20054;-84
2021/12/20 17:27:57;;;;;;;25.38;11.77;;;0.40;99.90;;;;;;4931889;28;20097;-85
2021/12/20 17:30:25;;;;;;;25.55;12.60;;;0.30;99.90;;;;;;4913302;28;20134;-85
2021/12/20 17:32:51;;;;;;;25.33;12.70;;;0.20;99.90;;;;;;4918895;28;20043;-85
2021/12/20 17:35:18;;;;;;;29.08;13.00;;;0.30;99.90;;;;;;4906848;28;20118;-85
2021/12/20 17:37:48;;;;;;;30.83;14.35;;;0.30;99.90;;;;;;4930047;28;20043;-86
2021/12/20 17:40:19;;;;;;;27.45;13.52;;;0.30;99.90;;;;;;4914045;28;20621;-86
2021/12/20 17:42:45;;;;;;;32.95;15.65;;;0.20;99.90;;;;;;4931996;28;20077;-86
2021/12/20 17:45:14;;;;;;;32.17;14.30;;;0.20;99.90;;;;;;4913614;28;20050;-86
2021/12/20 17:47:45;;;;;;;34.53;16.90;;;0.20;99.90;;;;;;4932667;28;20047;-87
2021/12/20 17:50:40;;;;;;;35.70;15.55;;;0.20;99.90;;;;;;4930813;28;20118;-87
2021/12/20 17:53:09;;;;;;;31.33;14.98;;;0.20;99.90;;;;;;4950892;28;20039;-87
2021/12/20 17:55:37;;;;;;;32.85;16.33;;;0.20;99.90;;;;;;4913676;28;20130;-86
2021/12/20 17:58:05;;;;;;;29.63;16.50;;;0.10;99.90;;;;;;4933674;28;20066;-87
2021/12/20 18:00:33;;;;;;;39.72;17.20;;;0.10;99.90;;;;;;4932912;28;20078;-86
2021/12/20 18:02:59;;;;;;;37.58;17.08;;;0.10;99.90;;;;;;4932917;28;20052;-86
2021/12/20 18:05:28;;;;;;;38.90;18.17;;;0.10;99.90;;;;;;4915652;28;20122;-87
2021/12/20 18:07:56;;;;;;;44.95;20.65;;;0.10;99.90;;;;;;4946847;28;20561;-87
2021/12/20 18:10:25;;;;;;;41.75;20.95;;;0.00;99.90;;;;;;4940026;28;20047;-87
2021/12/20 18:12:59;;;;;;;47.75;25.23;;;0.00;99.90;;;;;;4946312;28;20097;-87
2021/12/20 18:15:35;;;;;;;40.65;19.42;;;0.00;99.90;;;;;;4924072;28;20039;-87
2021/12/20 18:18:14;;;;;;;36.47;18.13;;;0.00;99.90;;;;;;4935753;28;20085;-87
2021/12/20 18:20:42;;;;;;;43.03;20.60;;;0.00;99.90;;;;;;4951153;28;20046;-87
2021/12/20 18:23:10;;;;;;;47.72;21.17;;;-0.10;99.90;;;;;;4940841;28;20049;-87
2021/12/20 18:25:38;;;;;;;40.35;20.15;;;-0.10;99.90;;;;;;4932166;28;20458;-87
2021/12/20 18:28:08;;;;;;;35.75;19.83;;;-0.10;99.90;;;;;;4945899;28;20457;-87